Time;durP1;ratioP1;P1;durP2;ratioP2;P2;SDS_P1;SDS_P2;PMS_P1;PMS_P2;Temp;Humidity;BMP_temperature;BMP_pressure;BME280_temperature;BME280_humidity;BME280_pressure;Samples;Min_cycle;Max_cycle;Signal;HPM_P1;HPM_P2
2024/01/22 00:01:39;;;;;;;;;4.00;4.00;;;;;-144.24;100.00;55233.63;5056829;28;45531;-74
2024/01/22 00:04:07;;;;;;;;;2.33;2.33;;;;;-144.24;100.00;55012.78;5059196;28;45303;-79
2024/01/22 00:06:32;;;;;;;;;3.00;3.00;;;;;-144.24;100.00;54962.59;5057846;28;47558;-76
2024/01/22 00:08:58;;;;;;;;;4.67;3.00;;;;;-144.24;100.00;54812.06;5057612;28;45547;-74
2024/01/22 00:11:23;;;;;;;;;3.00;3.00;;;;;-144.24;100.00;54577.19;5065417;28;63433;-74
2024/01/22 00:13:48;;;;;;;;;3.00;3.00;;;;;-144.24;100.00;54458.75;5054240;28;65243;-74
2024/01/22 00:16:15;;;;;;;;;3.00;3.00;;;;;-144.24;100.00;54358.41;5057138;28;72107;-75
2024/01/22 00:18:40;;;;;;;;;4.67;4.00;;;;;-144.24;100.00;54207.88;5061101;28;45536;-77
2024/01/22 00:21:05;;;;;;;;;2.67;2.67;;;;;-144.24;100.00;54197.84;5051735;28;67551;-74
2024/01/22 00:23:31;;;;;;;;;2.00;2.00;;;;;-144.24;100.00;54250.03;5053562;28;66805;-74
2024/01/22 00:25:56;;;;;;;;;2.00;2.00;;;;;-144.24;100.00;54302.22;5055760;28;72468;-75
2024/01/22 00:28:21;;;;;;;;;4.67;3.00;;;;;-144.24;100.00;54105.50;5056197;28;65332;-73
2024/01/22 00:30:47;;;;;;;;;4.33;3.00;;;;;-144.24;100.00;53997.13;5059221;28;45194;-76
2024/01/22 00:33:12;;;;;;;;;2.00;2.00;;;;;-144.24;100.00;54213.91;5038211;28;63660;-73
2024/01/22 00:35:37;;;;;;;;;2.00;2.00;;;;;-144.24;100.00;54111.53;5055937;28;76908;-74
2024/01/22 00:38:03;;;;;;;;;3.00;2.00;;;;;-144.24;100.00;54223.94;5056286;28;71068;-76
2024/01/22 00:40:28;;;;;;;;;4.67;3.00;;;;;-144.24;100.00;54252.03;5042664;28;45457;-75
2024/01/22 00:42:53;;;;;;;;;3.00;3.00;;;;;-144.24;100.00;54328.31;5072396;28;64157;-76
2024/01/22 00:45:19;;;;;;;;;3.00;3.00;;;;;-144.24;100.00;54292.16;5061928;28;48167;-78
2024/01/22 00:47:44;;;;;;;;;4.67;1.67;;;;;-144.24;100.00;54223.94;5063562;28;45396;-74
2024/01/22 00:50:10;;;;;;;;;2.33;2.00;;;;;-144.24;100.00;54031.25;5068143;28;65802;-74
2024/01/22 00:52:35;;;;;;;;;5.00;2.00;;;;;-144.24;100.00;53987.09;5056459;28;45993;-75
2024/01/22 00:55:01;;;;;;;;;3.00;2.00;;;;;-144.24;100.00;54039.28;5055853;28;64756;-73
2024/01/22 00:57:26;;;;;;;;;2.33;2.33;;;;;-144.24;100.00;54083.44;5059102;28;45857;-75
2024/01/22 00:59:51;;;;;;;;;3.00;2.00;;;;;-144.24;100.00;53948.97;5057410;28;69599;-75
2024/01/22 01:02:16;;;;;;;;;1.67;1.67;;;;;-144.24;100.00;53794.44;5056576;28;66612;-75
2024/01/22 01:04:42;;;;;;;;;3.67;2.00;;;;;-144.24;100.00;53637.91;5059676;28;74328;-75
2024/01/22 01:07:07;;;;;;;;;2.00;2.00;;;;;-144.24;100.00;53455.28;5057207;28;68669;-78
2024/01/22 01:09:33;;;;;;;;;2.00;2.00;;;;;-144.24;100.00;53352.94;5065389;28;63447;-74
2024/01/22 01:11:58;;;;;;;;;2.00;2.00;;;;;-144.24;100.00;53112.16;5057740;28;67060;-76
2024/01/22 01:14:24;;;;;;;;;2.00;2.00;;;;;-144.24;100.00;52989.75;5055674;28;65261;-75
2024/01/22 01:16:49;;;;;;;;;4.00;1.33;;;;;-144.24;100.00;52881.41;5056146;28;45493;-77
2024/01/22 01:19:15;;;;;;;;;2.67;1.67;;;;;-144.24;100.00;52229.38;5056160;28;69240;-73
2024/01/22 01:21:40;;;;;;;;;2.33;2.33;;;;;-144.24;100.00;52550.38;5055101;28;66784;-75
2024/01/22 01:24:06;;;;;;;;;2.00;1.00;;;;;-144.24;100.00;52339.72;5061074;28;46239;-74
2024/01/22 01:26:31;;;;;;;;;1.33;1.00;;;;;-144.24;100.00;52030.78;5038196;28;69357;-74
2024/01/22 01:28:57;;;;;;;;;3.67;2.00;;;;;-144.24;100.00;51691.78;5057028;28;68012;-74
2024/01/22 01:31:22;;;;;;;;;2.00;2.00;;;;;-144.24;100.00;51589.50;5056912;28;45432;-74
2024/01/22 01:33:47;;;;;;;;;2.67;1.67;;;;;-144.24;100.00;51435.03;5056529;28;46605;-74
2024/01/22 01:36:13;;;;;;;;;1.00;1.00;;;;;-144.24;100.00;51384.91;5056242;28;45506;-77
2024/01/22 01:38:38;;;;;;;;;1.67;1.67;;;;;-144.24;100.00;51084.06;5055336;28;67365;-74
2024/01/22 01:41:04;;;;;;;;;1.33;1.33;;;;;-144.24;100.00;50955.72;5056776;28;45449;-74
2024/01/22 01:43:30;;;;;;;;;3.33;2.00;;;;;-144.24;100.00;50727.09;5055520;28;47226;-74
2024/01/22 01:45:55;;;;;;;;;2.00;2.00;;;;;-144.24;100.00;50404.25;5056409;28;45328;-75
2024/01/22 01:48:20;;;;;;;;;1.00;1.00;;;;;-144.24;100.00;50163.66;5059494;28;69071;-75
2024/01/22 01:50:46;;;;;;;;;2.00;2.00;;;;;-144.24;100.00;50075.44;5065543;28;45494;-74
2024/01/22 01:53:11;;;;;;;;;3.00;2.00;;;;;-144.24;100.00;49774.69;5047782;28;74443;-76
2024/01/22 01:55:37;;;;;;;;;3.00;1.67;;;;;-144.24;100.00;49680.47;5060268;28;45391;-75
2024/01/22 01:58:03;;;;;;;;;1.67;1.67;;;;;-144.24;100.00;49457.94;5065236;28;60093;-75
2024/01/22 02:00:29;;;;;;;;;2.00;2.00;;;;;-144.24;100.00;49149.22;5042448;28;45320;-74
2024/01/22 02:02:54;;;;;;;;;3.00;2.00;;;;;-144.24;100.00;48996.88;5058481;28;68673;-76
2024/01/22 02:05:20;;;;;;;;;2.00;2.00;;;;;-144.24;100.00;48776.41;5058535;28;64287;-74
2024/01/22 02:07:46;;;;;;;;;3.33;3.33;;;;;-144.24;100.00;48495.81;5058493;28;67606;-74
2024/01/22 02:10:15;;;;;;;;;2.00;2.00;;;;;-144.24;100.00;48371.53;5059935;28;45234;-75
2024/01/22 02:12:40;;;;;;;;;1.67;1.00;;;;;-144.24;100.00;47964.72;5046503;28;46336;-76
2024/01/22 02:15:06;;;;;;;;;2.00;2.00;;;;;-144.24;100.00;47766.34;5058204;28;45544;-74
2024/01/22 02:17:31;;;;;;;;;2.00;2.00;;;;;-144.24;100.00;47513.88;5054067;28;46764;-74
2024/01/22 02:19:57;;;;;;;;;1.00;1.00;;;;;-144.24;100.00;48074.94;5061676;28;69806;-77
2024/01/22 02:22:22;;;;;;;;;1.67;1.00;;;;;-144.24;100.00;47922.66;5053988;28;62700;-74
2024/01/22 02:24:47;;;;;;;;;2.00;2.00;;;;;-144.24;100.00;47646.13;5058753;28;45456;-75
2024/01/22 02:27:13;;;;;;;;;2.00;1.00;;;;;-144.24;100.00;47620.06;5058113;28;66634;-74
2024/01/22 02:29:38;;;;;;;;;3.67;2.00;;;;;-144.24;100.00;47347.56;5063025;28;45305;-74
2024/01/22 02:32:04;;;;;;;;;0.00;0.00;;;;;-144.24;100.00;47377.63;5059930;28;45425;-74
2024/01/22 02:34:29;;;;;;;;;1.67;1.67;;;;;-144.24;100.00;47137.19;5059296;28;45269;-76
2024/01/22 02:36:54;;;;;;;;;2.67;1.33;;;;;-144.24;100.00;46890.78;5058214;28;68060;-75
2024/01/22 02:39:19;;;;;;;;;2.00;2.00;;;;;-144.24;100.00;46924.84;5058496;28;64057;-74
2024/01/22 02:41:45;;;;;;;;;0.00;0.00;;;;;-144.24;100.00;46582.25;5061642;28;53807;-73
2024/01/22 02:44:10;;;;;;;;;1.00;1.00;;;;;-144.24;100.00;46512.16;5058455;28;65542;-74
2024/01/22 02:46:36;;;;;;;;;3.00;2.00;;;;;-144.24;100.00;46482.09;5052222;28;45589;-73
2024/01/22 02:49:01;;;;;;;;;3.67;1.33;;;;;-144.24;100.00;45991.34;5061596;28;45545;-74
2024/01/22 02:51:26;;;;;;;;;4.00;1.00;;;;;-144.24;100.00;45911.25;5060565;28;45424;-74
2024/01/22 02:53:52;;;;;;;;;1.00;1.00;;;;;-144.24;100.00;45692.94;5062908;28;53704;-74
2024/01/22 02:56:21;;;;;;;;;2.00;2.00;;;;;-144.24;100.00;45696.94;5063509;28;45477;-73
2024/01/22 02:58:46;;;;;;;;;3.00;1.00;;;;;-144.24;100.00;45666.91;5058937;28;45405;-74
2024/01/22 03:01:12;;;;;;;;;2.00;2.00;;;;;-144.24;100.00;45604.81;5065826;28;46466;-75
2024/01/22 03:03:37;;;;;;;;;1.00;1.00;;;;;-144.24;100.00;45646.88;5039468;28;45515;-73
2024/01/22 03:06:03;;;;;;;;;0.67;0.67;;;;;-144.24;100.00;45488.66;5059926;28;45431;-74
2024/01/22 03:08:28;;;;;;;;;3.00;1.00;;;;;-144.24;100.00;45304.41;5058451;28;45537;-74
2024/01/22 03:10:54;;;;;;;;;2.00;2.00;;;;;-144.24;100.00;45386.53;5066703;28;69581;-75
2024/01/22 03:13:19;;;;;;;;;1.00;1.00;;;;;-144.24;100.00;45584.78;5057770;28;67854;-72
2024/01/22 03:15:44;;;;;;;;;3.00;2.00;;;;;-144.24;100.00;45640.84;5063118;28;45568;-72
2024/01/22 03:18:10;;;;;;;;;1.00;1.00;;;;;-144.24;100.00;45628.84;5064456;28;50774;-73
2024/01/22 03:20:37;;;;;;;;;2.00;1.00;;;;;-144.24;100.00;45646.88;5061483;28;70984;-74
2024/01/22 03:23:03;;;;;;;;;2.00;2.00;;;;;-144.24;100.00;45823.13;5058255;28;45272;-73
2024/01/22 03:25:29;;;;;;;;;1.00;1.00;;;;;-144.24;100.00;45867.19;5057793;28;45686;-73
2024/01/22 03:27:54;;;;;;;;;2.00;1.00;;;;;-144.24;100.00;45833.13;5057535;28;64679;-73
2024/01/22 03:30:19;;;;;;;;;1.00;1.00;;;;;-144.24;100.00;45963.31;5057137;28;69921;-73
2024/01/22 03:32:45;;;;;;;;;0.33;0.33;;;;;-144.24;100.00;45887.22;5057686;28;72513;-73
2024/01/22 03:35:10;;;;;;;;;1.00;1.00;;;;;-144.24;100.00;46059.47;5058280;28;45380;-75
2024/01/22 03:37:35;;;;;;;;;1.00;1.00;;;;;-144.24;100.00;46261.75;5057316;28;65364;-74
2024/01/22 03:40:00;;;;;;;;;1.33;1.33;;;;;-144.24;100.00;46317.84;5059047;28;72781;-74
2024/01/22 03:42:26;;;;;;;;;1.00;1.00;;;;;-144.24;100.00;46353.91;5068374;28;71673;-78
2024/01/22 03:44:53;;;;;;;;;1.00;1.00;;;;;-144.24;100.00;46532.19;5061245;28;67829;-74
2024/01/22 03:47:18;;;;;;;;;1.00;1.00;;;;;-144.24;100.00;46361.91;5063366;28;45617;-74
2024/01/22 03:49:44;;;;;;;;;1.00;1.00;;;;;-144.24;100.00;46496.13;5071204;28;46554;-73
2024/01/22 03:52:09;;;;;;;;;1.00;1.00;;;;;-144.24;100.00;46462.06;5061158;28;45372;-73
2024/01/22 03:54:34;;;;;;;;;1.00;1.00;;;;;-144.24;100.00;46564.22;5058047;28;66739;-74
2024/01/22 03:57:06;;;;;;;;;2.00;1.00;;;;;-144.24;100.00;46632.34;5061088;28;68277;-74
2024/01/22 03:59:31;;;;;;;;;0.00;0.00;;;;;-144.24;100.00;46586.28;5060874;28;47645;-75
2024/01/22 04:01:57;;;;;;;;;1.00;1.00;;;;;-144.24;100.00;46662.41;5060286;28;68050;-75
2024/01/22 04:04:22;;;;;;;;;3.00;1.33;;;;;-144.24;100.00;46598.28;5056226;28;64131;-74
2024/01/22 04:06:47;;;;;;;;;1.67;1.67;;;;;-144.24;100.00;46836.69;5057204;28;54882;-75
2024/01/22 04:09:12;;;;;;;;;1.00;1.00;;;;;-144.24;100.00;46878.75;5057303;28;74128;-73
2024/01/22 04:11:38;;;;;;;;;1.00;1.00;;;;;-144.24;100.00;46876.75;5060328;28;70224;-72
2024/01/22 04:14:04;;;;;;;;;1.00;1.00;;;;;-144.24;100.00;46762.56;5061241;28;45441;-74
2024/01/22 04:16:29;;;;;;;;;1.67;1.67;;;;;-144.24;100.00;46954.88;5057224;28;45280;-73
2024/01/22 04:18:54;;;;;;;;;1.00;1.00;;;;;-144.24;100.00;46964.91;5069233;28;46545;-74
2024/01/22 04:21:22;;;;;;;;;0.33;0.33;;;;;-144.24;100.00;46846.69;5046994;28;71558;-75
2024/01/22 04:23:47;;;;;;;;;2.67;1.00;;;;;-144.24;100.00;46974.91;5062721;28;67144;-72
2024/01/22 04:26:12;;;;;;;;;1.33;1.33;;;;;-144.24;100.00;46932.84;5057464;28;67335;-71
2024/01/22 04:28:38;;;;;;;;;2.00;2.00;;;;;-144.24;100.00;47004.97;5056638;28;54069;-74
2024/01/22 04:31:06;;;;;;;;;1.00;1.00;;;;;-144.24;100.00;47147.22;5056696;28;65930;-73
2024/01/22 04:33:31;;;;;;;;;1.00;1.00;;;;;-144.24;100.00;47053.06;5057286;28;45307;-76
2024/01/22 04:35:57;;;;;;;;;1.00;1.00;;;;;-144.24;100.00;47171.25;5057636;28;45381;-75
2024/01/22 04:38:23;;;;;;;;;3.33;2.00;;;;;-144.24;100.00;47017.00;5056973;28;46436;-73
2024/01/22 04:40:48;;;;;;;;;1.00;1.00;;;;;-144.24;100.00;47173.25;5057237;28;46425;-77
2024/01/22 04:43:15;;;;;;;;;1.00;1.00;;;;;-144.24;100.00;47147.22;5058318;28;45421;-74
2024/01/22 04:45:40;;;;;;;;;1.67;1.00;;;;;-144.24;100.00;47353.56;5039567;28;45522;-76
2024/01/22 04:48:05;;;;;;;;;1.00;1.00;;;;;-144.24;100.00;47433.72;5057065;28;46399;-76
2024/01/22 04:50:31;;;;;;;;;1.00;1.00;;;;;-144.24;100.00;47437.72;5064601;28;45177;-74
2024/01/22 04:52:56;;;;;;;;;2.00;0.67;;;;;-144.24;100.00;47427.72;5057558;28;45387;-77
2024/01/22 04:55:21;;;;;;;;;1.33;0.33;;;;;-144.24;100.00;47313.50;5057086;28;47200;-76
2024/01/22 04:57:47;;;;;;;;;1.00;1.00;;;;;-144.24;100.00;47155.22;5039202;28;70983;-75
2024/01/22 05:00:13;;;;;;;;;0.33;0.33;;;;;-144.24;100.00;47319.53;5054800;28;68853;-77
2024/01/22 05:02:39;;;;;;;;;1.00;1.00;;;;;-144.24;100.00;47121.16;5057176;28;45208;-77
2024/01/22 05:05:04;;;;;;;;;2.00;0.33;;;;;-144.24;100.00;47099.13;5056894;28;45557;-76
2024/01/22 05:07:29;;;;;;;;;4.00;0.67;;;;;-144.24;100.00;47331.53;5055899;28;71649;-73
2024/01/22 05:10:04;;;;;;;;;1.00;1.00;;;;;-144.24;100.00;47213.34;5059670;28;73097;-72
2024/01/22 05:12:29;;;;;;;;;1.00;1.00;;;;;-144.24;100.00;47343.56;5055160;28;45494;-73
2024/01/22 05:14:55;;;;;;;;;1.67;1.00;;;;;-144.24;100.00;47391.66;5056826;28;67678;-74
2024/01/22 05:17:21;;;;;;;;;0.67;0.00;;;;;-144.24;100.00;47407.69;5056760;28;53743;-74
2024/01/22 05:19:47;;;;;;;;;1.00;1.00;;;;;-144.24;100.00;47403.66;5052267;28;45454;-74
2024/01/22 05:22:12;;;;;;;;;1.00;1.00;;;;;-144.24;100.00;47622.06;5051187;28;45363;-74
2024/01/22 05:24:37;;;;;;;;;2.00;0.67;;;;;-144.24;100.00;47487.81;5058736;28;65393;-76
2024/01/22 05:27:04;;;;;;;;;0.00;0.00;;;;;-144.24;100.00;47531.91;5059553;28;46133;-73
2024/01/22 05:29:29;;;;;;;;;1.00;0.00;;;;;-144.24;100.00;47253.41;5057389;28;45482;-76
2024/01/22 05:31:54;;;;;;;;;0.00;0.00;;;;;-144.24;100.00;46934.84;5060347;28;67127;-73
2024/01/22 05:34:20;;;;;;;;;0.67;0.67;;;;;-144.24;100.00;46978.91;5056355;28;53640;-73
2024/01/22 05:36:46;;;;;;;;;0.00;0.00;;;;;-144.24;100.00;46862.72;5055501;28;65224;-73
2024/01/22 05:39:12;;;;;;;;;0.00;0.00;;;;;-144.24;100.00;46922.81;5057574;28;45613;-73
2024/01/22 05:41:37;;;;;;;;;4.00;0.67;;;;;-144.24;100.00;46874.75;5056268;28;45402;-73
2024/01/22 05:44:03;;;;;;;;;1.00;1.00;;;;;-144.24;100.00;46766.56;5056625;28;45130;-73
2024/01/22 05:46:28;;;;;;;;;0.00;0.00;;;;;-144.24;100.00;46562.22;5055410;28;70654;-73
2024/01/22 05:48:53;;;;;;;;;1.00;1.00;;;;;-144.24;100.00;46502.13;5058197;28;45334;-73
2024/01/22 05:51:19;;;;;;;;;1.67;1.00;;;;;-144.24;100.00;46722.50;5058161;28;65574;-74
2024/01/22 05:53:45;;;;;;;;;2.00;2.00;;;;;-144.24;100.00;46758.56;5060350;28;45393;-73
2024/01/22 05:56:25;;;;;;;;;0.00;0.00;;;;;-144.24;100.00;46660.38;5064308;28;45606;-73
2024/01/22 05:58:50;;;;;;;;;1.00;1.00;;;;;-144.24;100.00;46462.06;5056027;28;45518;-72
2024/01/22 06:01:26;;;;;;;;;0.00;0.00;;;;;-144.24;100.00;46458.06;5054049;28;45202;-73
2024/01/22 06:03:51;;;;;;;;;0.00;0.00;;;;;-144.24;100.00;46810.63;5054974;28;45531;-73
2024/01/22 06:06:18;;;;;;;;;2.00;0.00;;;;;-144.24;100.00;47087.09;5051091;28;46882;-72
2024/01/22 06:08:44;;;;;;;;;2.00;0.00;;;;;-144.24;100.00;47381.63;5049070;28;45434;-73
2024/01/22 06:11:13;;;;;;;;;0.33;0.33;;;;;-144.24;100.00;47594.03;5055564;28;45513;-74
2024/01/22 06:13:39;;;;;;;;;0.00;0.00;;;;;-144.24;100.00;47479.81;5051853;28;45511;-73
2024/01/22 06:16:11;;;;;;;;;1.00;1.00;;;;;-144.24;100.00;47794.41;5053659;28;45630;-73
2024/01/22 06:18:38;;;;;;;;;2.33;1.00;;;;;-144.24;100.00;47870.53;5055389;28;45490;-73
2024/01/22 06:21:04;;;;;;;;;1.00;1.00;;;;;-144.24;100.00;47940.69;5055172;28;45480;-73
2024/01/22 06:23:30;;;;;;;;;1.00;1.00;;;;;-144.24;100.00;48022.84;5056401;28;45427;-73
2024/01/22 06:25:56;;;;;;;;;0.00;0.00;;;;;-144.24;100.00;48321.44;5042440;28;46604;-75
2024/01/22 06:28:22;;;;;;;;;1.00;1.00;;;;;-144.24;100.00;48694.22;5057988;28;45542;-73
2024/01/22 06:30:48;;;;;;;;;1.00;1.00;;;;;-144.24;100.00;48814.47;5037417;28;45351;-74
2024/01/22 06:33:13;;;;;;;;;1.00;1.00;;;;;-144.24;100.00;49303.56;5061989;28;60695;-74
2024/01/22 06:35:38;;;;;;;;;2.00;1.00;;;;;-144.24;100.00;49832.81;5054305;28;72362;-73
2024/01/22 06:38:05;;;;;;;;;1.00;1.00;;;;;-144.24;100.00;50075.44;5054374;28;68167;-73
2024/01/22 06:40:31;;;;;;;;;0.00;0.00;;;;;-144.24;100.00;50763.19;5063425;28;45292;-74
2024/01/22 06:42:56;;;;;;;;;1.00;1.00;;;;;-144.24;100.00;51661.69;5040703;28;45463;-73
2024/01/22 06:45:21;;;;;;;;;1.00;1.00;;;;;-144.24;100.00;52452.06;5061007;28;74123;-74
2024/01/22 06:47:47;;;;;;;;;0.00;0.00;;;;;-144.24;100.00;52644.66;5062403;28;69827;-73
2024/01/22 06:50:12;;;;;;;;;1.00;1.00;;;;;-144.24;100.00;52720.91;5058693;28;64908;-72
2024/01/22 06:52:37;;;;;;;;;2.33;0.00;;;;;-144.24;100.00;52785.09;5057274;28;67006;-71
2024/01/22 06:55:03;;;;;;;;;0.00;0.00;;;;;-144.24;100.00;52883.41;5059651;28;46334;-72
2024/01/22 06:57:29;;;;;;;;;0.67;0.67;;;;;-144.24;100.00;52833.25;5059986;28;45407;-72
2024/01/22 06:59:55;;;;;;;;;2.00;1.00;;;;;-144.24;100.00;52851.31;5068072;28;45318;-72
2024/01/22 07:02:22;;;;;;;;;1.00;1.00;;;;;-144.24;100.00;52927.56;5061693;28;45625;-72
2024/01/22 07:04:47;;;;;;;;;1.00;1.00;;;;;-144.24;100.00;52903.47;5064511;28;46611;-72
2024/01/22 07:07:13;;;;;;;;;1.00;1.00;;;;;-144.24;100.00;53120.19;5064643;28;71616;-74
2024/01/22 07:09:38;;;;;;;;;1.00;1.00;;;;;-144.24;100.00;53134.22;5046045;28;45147;-74
2024/01/22 07:12:05;;;;;;;;;1.00;1.00;;;;;-144.24;100.00;53150.28;5040189;28;59673;-71
2024/01/22 07:14:30;;;;;;;;;0.00;0.00;;;;;-144.24;100.00;53090.09;5044665;28;46721;-70
2024/01/22 07:16:55;;;;;;;;;2.00;0.33;;;;;-144.24;100.00;53158.31;5056812;28;66350;-70
2024/01/22 07:19:21;;;;;;;;;1.00;1.00;;;;;-144.24;100.00;53134.22;5056710;28;47230;-71
2024/01/22 07:21:47;;;;;;;;;1.00;1.00;;;;;-144.24;100.00;52941.59;5052960;28;45451;-73
2024/01/22 07:24:12;;;;;;;;;1.00;1.00;;;;;-144.24;100.00;53011.81;5056590;28;46794;-73
2024/01/22 07:26:37;;;;;;;;;1.33;1.00;;;;;-144.24;100.00;53134.22;5046853;28;45460;-73
2024/01/22 07:29:04;;;;;;;;;1.00;1.00;;;;;-144.24;100.00;53294.75;5042636;28;64421;-73
2024/01/22 07:31:29;;;;;;;;;1.00;1.00;;;;;-144.24;100.00;53585.72;5045996;28;46430;-69
2024/01/22 07:33:55;;;;;;;;;0.33;0.33;;;;;-144.24;100.00;53704.13;5054904;28;47446;-69
2024/01/22 07:36:20;;;;;;;;;1.00;1.00;;;;;-144.24;100.00;53306.78;5051164;28;45438;-69
2024/01/22 07:38:47;;;;;;;;;2.00;0.67;;;;;-144.24;100.00;53513.47;5061350;28;45473;-69
2024/01/22 07:41:13;;;;;;;;;1.00;1.00;;;;;-144.24;100.00;53748.28;5054505;28;45642;-69
2024/01/22 07:43:39;;;;;;;;;1.00;1.00;;;;;-144.24;100.00;53860.66;5050535;28;47514;-69
2024/01/22 07:46:04;;;;;;;;;1.67;1.00;;;;;-144.24;100.00;53720.19;5052466;28;45592;-69
2024/01/22 07:48:29;;;;;;;;;1.00;1.00;;;;;-144.24;100.00;53531.53;5055488;28;45547;-70
2024/01/22 07:50:55;;;;;;;;;0.00;0.00;;;;;-144.24;100.00;53316.81;5055780;28;52985;-70
2024/01/22 07:53:20;;;;;;;;;0.00;0.00;;;;;-144.24;100.00;53643.91;5054593;28;75206;-70
2024/01/22 07:55:45;;;;;;;;;1.00;1.00;;;;;-144.24;100.00;53680.03;5055076;28;68412;-70
2024/01/22 07:58:14;;;;;;;;;1.00;1.00;;;;;-144.24;100.00;53641.91;5055727;28;45521;-70
2024/01/22 08:00:39;;;;;;;;;0.00;0.00;;;;;-144.24;100.00;53684.06;5056361;28;45413;-70
2024/01/22 08:03:04;;;;;;;;;1.00;1.00;;;;;-144.24;100.00;53888.75;5053056;28;45566;-70
2024/01/22 08:05:31;;;;;;;;;0.67;0.67;;;;;-144.24;100.00;53874.72;5053169;28;45348;-70
2024/01/22 08:07:56;;;;;;;;;0.00;0.00;;;;;-144.24;100.00;53806.47;5055927;28;45443;-70
2024/01/22 08:10:22;;;;;;;;;0.00;0.00;;;;;-144.24;100.00;54009.19;5055819;28;46479;-69
2024/01/22 08:12:47;;;;;;;;;0.67;0.67;;;;;-144.24;100.00;54141.63;5053792;28;47131;-69
2024/01/22 08:15:14;;;;;;;;;0.00;0.00;;;;;-144.24;100.00;54262.06;5054888;28;45502;-69
2024/01/22 08:17:42;;;;;;;;;0.00;0.00;;;;;-144.24;100.00;54316.25;5055904;28;45443;-70
2024/01/22 08:20:08;;;;;;;;;0.00;0.00;;;;;-144.24;100.00;54215.91;5051940;28;45402;-72
2024/01/22 08:22:33;;;;;;;;;1.00;1.00;;;;;-144.24;100.00;54229.94;5036843;28;46106;-71
2024/01/22 08:24:58;;;;;;;;;0.00;0.00;;;;;-144.24;100.00;54227.94;5057118;28;69006;-72
2024/01/22 08:27:24;;;;;;;;;2.00;1.00;;;;;-144.24;100.00;54436.69;5056026;28;63764;-71
2024/01/22 08:29:49;;;;;;;;;3.00;0.00;;;;;-144.24;100.00;54286.16;5046501;28;67480;-71
2024/01/22 08:32:14;;;;;;;;;5.00;1.00;;;;;-144.24;100.00;54340.34;5037522;28;46342;-71
2024/01/22 08:34:40;;;;;;;;;1.00;1.00;;;;;-144.24;100.00;54695.63;5043218;28;67055;-71
2024/01/22 08:37:05;;;;;;;;;0.00;0.00;;;;;-144.24;100.00;54227.94;5039400;28;45295;-72
2024/01/22 08:39:31;;;;;;;;;3.33;1.00;;;;;-144.24;100.00;54508.94;5047752;28;45563;-71
2024/01/22 08:41:56;;;;;;;;;3.67;1.00;;;;;-144.24;100.00;54900.38;5048064;28;49067;-72
2024/01/22 08:44:21;;;;;;;;;2.67;0.67;;;;;-144.24;100.00;55052.94;5046829;28;56925;-71
2024/01/22 08:46:47;;;;;;;;;2.00;1.00;;;;;-144.24;100.00;55217.56;5054777;28;63324;-69
2024/01/22 08:49:12;;;;;;;;;2.33;1.00;;;;;-144.24;100.00;55578.94;5055354;28;45457;-71
2024/01/22 08:51:37;;;;;;;;;2.67;1.67;;;;;-144.24;100.00;55615.09;5054552;28;74330;-71
2024/01/22 08:54:03;;;;;;;;;3.00;0.67;;;;;-144.24;100.00;55839.97;5055520;28;45410;-71
2024/01/22 08:56:28;;;;;;;;;1.67;1.67;;;;;-144.24;100.00;55809.84;5054780;28;45542;-74
2024/01/22 08:58:54;;;;;;;;;1.00;1.00;;;;;-144.24;100.00;55948.41;5054972;28;61001;-72
2024/01/22 09:01:20;;;;;;;;;2.00;1.00;;;;;-144.24;100.00;56197.41;5052670;28;67174;-75
2024/01/22 09:03:45;;;;;;;;;1.00;0.00;;;;;-144.24;100.00;56223.50;5054993;28;45320;-72
2024/01/22 09:06:10;;;;;;;;;4.67;0.67;;;;;-144.24;100.00;56193.38;5051073;28;45493;-72
2024/01/22 09:08:36;;;;;;;;;3.00;1.00;;;;;-144.24;100.00;56115.06;5053422;28;48015;-72
2024/01/22 09:11:02;;;;;;;;;1.00;0.00;;;;;-144.24;100.00;56257.63;5055954;28;46389;-70
2024/01/22 09:13:27;;;;;;;;;0.00;0.00;;;;;-144.24;100.00;56080.94;5054482;28;46485;-68
2024/01/22 09:15:53;;;;;;;;;1.67;1.00;;;;;-144.24;100.00;56060.84;5055925;28;45609;-72
2024/01/22 09:18:19;;;;;;;;;1.33;0.00;;;;;-144.24;100.00;55960.44;5055046;28;45454;-72
2024/01/22 09:20:44;;;;;;;;;0.00;0.00;;;;;-144.24;100.00;55926.31;5052177;28;71779;-75
2024/01/22 09:23:10;;;;;;;;;3.67;1.00;;;;;-144.24;100.00;55948.41;5039573;28;45569;-70
2024/01/22 09:25:36;;;;;;;;;2.00;1.00;;;;;-144.24;100.00;55597.03;5050450;28;45399;-71
2024/01/22 09:28:02;;;;;;;;;4.67;0.33;;;;;-144.24;100.00;55605.06;5055330;28;45533;-71
2024/01/22 09:30:27;;;;;;;;;3.00;2.00;;;;;-144.24;100.00;55440.41;5036802;28;46585;-71
2024/01/22 09:32:57;;;;;;;;;0.00;0.00;;;;;-144.24;100.00;55458.50;5055550;28;45462;-72
2024/01/22 09:35:23;;;;;;;;;5.00;0.00;;;;;-144.24;100.00;55193.47;5054853;28;45486;-71
2024/01/22 09:37:48;;;;;;;;;0.67;0.67;;;;;-144.24;100.00;55317.94;5055062;28;45443;-72
2024/01/22 09:40:14;;;;;;;;;1.33;1.00;;;;;-144.24;100.00;55048.94;5054627;28;75950;-70
2024/01/22 09:42:39;;;;;;;;;4.33;0.00;;;;;-144.24;100.00;54691.59;5035819;28;63047;-72
2024/01/22 09:45:06;;;;;;;;;1.33;0.33;;;;;-144.24;100.00;54577.19;5054503;28;53050;-71
2024/01/22 09:47:31;;;;;;;;;1.33;1.33;;;;;-144.24;100.00;54402.56;5037363;28;45666;-70
2024/01/22 09:49:57;;;;;;;;;0.00;0.00;;;;;-144.24;100.00;54179.78;5053660;28;71695;-71
2024/01/22 09:52:25;;;;;;;;;3.00;1.00;;;;;-144.24;100.00;53924.88;5045620;28;49074;-71
2024/01/22 09:54:51;;;;;;;;;3.33;1.00;;;;;-144.24;100.00;53647.94;5031977;28;56292;-72
2024/01/22 09:57:17;;;;;;;;;2.33;1.00;;;;;-144.24;100.00;53676.03;5053269;28;52890;-71
2024/01/22 09:59:43;;;;;;;;;2.00;1.00;;;;;-144.24;100.00;53501.44;5055067;28;46238;-73
2024/01/22 10:02:14;;;;;;;;;3.00;1.33;;;;;-144.24;100.00;53220.50;5057644;28;45504;-73
2024/01/22 10:04:39;;;;;;;;;5.33;2.00;;;;;-144.24;100.00;52881.41;5050439;28;45406;-70
2024/01/22 10:07:06;;;;;;;;;6.00;2.00;;;;;-144.24;100.00;52259.47;5054294;28;67592;-70
2024/01/22 10:09:32;;;;;;;;;3.67;1.67;;;;;-144.24;100.00;51663.69;5140817;22;46667;-71
2024/01/22 10:11:57;;;;;;;;;5.33;2.00;;;;;-144.24;100.00;50911.59;5006558;28;45527;-71
2024/01/22 10:14:30;;;;;;;;;6.00;1.67;;;;;-144.24;100.00;49808.78;5013455;28;66173;-71
2024/01/22 10:16:55;;;;;;;;;4.33;1.00;;;;;-144.24;100.00;49792.72;5007901;28;45585;-72
2024/01/22 10:19:25;;;;;;;;;6.00;1.67;;;;;-144.24;100.00;49510.06;5010087;28;65622;-71
2024/01/22 10:21:59;;;;;;;;;6.00;2.00;;;;;-144.24;100.00;49608.28;5012710;28;45412;-71
2024/01/22 10:24:25;;;;;;;;;4.00;4.00;;;;;-144.24;100.00;49864.91;5010479;28;45451;-74
2024/01/22 10:26:50;;;;;;;;;5.00;1.00;;;;;-144.24;100.00;50053.38;5011771;28;66694;-71
2024/01/22 10:29:18;;;;;;;;;0.00;0.00;;;;;-144.24;100.00;50945.69;5006295;28;67061;-70
2024/01/22 10:31:59;;;;;;;;;4.33;2.00;;;;;-144.24;100.00;51653.66;5011767;28;45462;-70
2024/01/22 10:34:28;;;;;;;;;2.00;2.00;;;;;-144.24;100.00;52698.81;5002214;28;45458;-70
2024/01/22 10:37:21;;;;;;;;;4.00;1.00;;;;;-144.24;100.00;53292.75;5017474;28;45436;-71
2024/01/22 10:39:49;;;;;;;;;7.33;1.67;;;;;-144.24;100.00;54266.06;5011162;28;46154;-71
2024/01/22 10:42:20;;;;;;;;;5.00;2.00;;;;;-144.24;100.00;55530.75;5007303;28;45507;-71
2024/01/22 10:44:46;;;;;;;;;3.33;1.00;;;;;-144.24;100.00;56346.00;5013143;28;45521;-70
2024/01/22 10:47:13;;;;;;;;;5.00;1.00;;;;;-144.24;100.00;57014.78;5005990;28;45586;-72
2024/01/22 10:49:38;;;;;;;;;2.33;2.00;;;;;-144.24;100.00;57302.00;5013882;28;47274;-71
2024/01/22 10:52:07;;;;;;;;;6.00;2.67;;;;;-144.24;100.00;57490.81;5022946;28;71988;-72
2024/01/22 10:54:34;;;;;;;;;4.33;1.33;;;;;-144.24;100.00;57635.47;5004100;28;45404;-73
2024/01/22 10:57:04;;;;;;;;;8.67;1.33;;;;;-144.24;100.00;57790.13;5009251;28;45468;-73
2024/01/22 10:59:34;;;;;;;;;6.33;1.00;;;;;-144.24;100.00;57944.81;5017510;28;46821;-70
2024/01/22 11:02:00;;;;;;;;;7.67;2.00;;;;;-144.24;100.00;58175.88;5016540;28;45484;-72
2024/01/22 11:04:33;;;;;;;;;4.00;1.00;;;;;-144.24;100.00;58157.78;5015899;28;45499;-72